sensor_id;sensor_type;location;lat;lon;timestamp;P1;durP1;ratioP1;P2;durP2;ratioP2
12703;SDS011;6416;52.182;7.650;2023-01-19T00:00:04;7.70;;;6.90;;
12703;SDS011;6416;52.182;7.650;2023-01-19T00:02:30;7.97;;;6.87;;
12703;SDS011;6416;52.182;7.650;2023-01-19T00:04:56;8.33;;;7.53;;
12703;SDS011;6416;52.182;7.650;2023-01-19T00:07:21;8.07;;;7.27;;
12703;SDS011;6416;52.182;7.650;2023-01-19T00:09:47;8.47;;;7.57;;
12703;SDS011;6416;52.182;7.650;2023-01-19T00:12:12;9.90;;;8.50;;
12703;SDS011;6416;52.182;7.650;2023-01-19T00:14:38;8.67;;;7.87;;
12703;SDS011;6416;52.182;7.650;2023-01-19T00:17:03;10.10;;;8.70;;
12703;SDS011;6416;52.182;7.650;2023-01-19T00:19:29;8.83;;;7.63;;
12703;SDS011;6416;52.182;7.650;2023-01-19T00:21:54;9.47;;;7.80;;
12703;SDS011;6416;52.182;7.650;2023-01-19T00:24:20;8.27;;;7.47;;
12703;SDS011;6416;52.182;7.650;2023-01-19T00:26:45;11.00;;;7.40;;
12703;SDS011;6416;52.182;7.650;2023-01-19T00:29:11;8.60;;;7.57;;
12703;SDS011;6416;52.182;7.650;2023-01-19T00:31:38;9.10;;;7.23;;
12703;SDS011;6416;52.182;7.650;2023-01-19T00:34:04;8.30;;;7.50;;
12703;SDS011;6416;52.182;7.650;2023-01-19T00:36:30;8.53;;;7.73;;
12703;SDS011;6416;52.182;7.650;2023-01-19T00:38:56;8.30;;;7.50;;
12703;SDS011;6416;52.182;7.650;2023-01-19T00:41:22;8.77;;;7.93;;
12703;SDS011;6416;52.182;7.650;2023-01-19T00:43:47;9.90;;;8.90;;
12703;SDS011;6416;52.182;7.650;2023-01-19T00:46:13;9.10;;;8.20;;
12703;SDS011;6416;52.182;7.650;2023-01-19T00:48:38;10.27;;;9.20;;
12703;SDS011;6416;52.182;7.650;2023-01-19T00:51:03;9.37;;;8.43;;
12703;SDS011;6416;52.182;7.650;2023-01-19T00:53:29;9.93;;;8.93;;
12703;SDS011;6416;52.182;7.650;2023-01-19T00:55:54;10.47;;;9.47;;
12703;SDS011;6416;52.182;7.650;2023-01-19T00:58:20;9.37;;;8.43;;
12703;SDS011;6416;52.182;7.650;2023-01-19T01:00:45;9.93;;;8.90;;
12703;SDS011;6416;52.182;7.650;2023-01-19T01:03:11;9.87;;;8.97;;
12703;SDS011;6416;52.182;7.650;2023-01-19T01:05:38;10.17;;;9.10;;
12703;SDS011;6416;52.182;7.650;2023-01-19T01:08:05;9.27;;;8.37;;
12703;SDS011;6416;52.182;7.650;2023-01-19T01:10:30;10.53;;;9.00;;
12703;SDS011;6416;52.182;7.650;2023-01-19T01:12:56;10.83;;;9.73;;
12703;SDS011;6416;52.182;7.650;2023-01-19T01:15:21;10.07;;;9.03;;
12703;SDS011;6416;52.182;7.650;2023-01-19T01:17:47;9.30;;;8.23;;
12703;SDS011;6416;52.182;7.650;2023-01-19T01:20:13;9.00;;;8.13;;
12703;SDS011;6416;52.182;7.650;2023-01-19T01:22:40;10.00;;;9.00;;
12703;SDS011;6416;52.182;7.650;2023-01-19T01:25:06;10.03;;;9.03;;
12703;SDS011;6416;52.182;7.650;2023-01-19T01:27:32;9.87;;;8.87;;
12703;SDS011;6416;52.182;7.650;2023-01-19T01:29:57;9.73;;;8.80;;
12703;SDS011;6416;52.182;7.650;2023-01-19T01:32:22;10.30;;;9.30;;
12703;SDS011;6416;52.182;7.650;2023-01-19T01:34:48;11.10;;;9.90;;
12703;SDS011;6416;52.182;7.650;2023-01-19T01:37:13;11.63;;;10.50;;
12703;SDS011;6416;52.182;7.650;2023-01-19T01:39:39;12.27;;;9.10;;
12703;SDS011;6416;52.182;7.650;2023-01-19T01:42:08;10.50;;;9.47;;
12703;SDS011;6416;52.182;7.650;2023-01-19T01:44:45;10.90;;;9.87;;
12703;SDS011;6416;52.182;7.650;2023-01-19T01:47:17;9.77;;;8.87;;
12703;SDS011;6416;52.182;7.650;2023-01-19T01:49:53;9.60;;;8.70;;
12703;SDS011;6416;52.182;7.650;2023-01-19T01:52:24;10.60;;;9.50;;
12703;SDS011;6416;52.182;7.650;2023-01-19T01:54:53;10.47;;;9.47;;
12703;SDS011;6416;52.182;7.650;2023-01-19T01:57:19;10.50;;;9.40;;
12703;SDS011;6416;52.182;7.650;2023-01-19T01:59:45;9.90;;;8.77;;
12703;SDS011;6416;52.182;7.650;2023-01-19T02:02:15;11.17;;;10.10;;
12703;SDS011;6416;52.182;7.650;2023-01-19T02:05:04;9.83;;;8.83;;
12703;SDS011;6416;52.182;7.650;2023-01-19T02:10:15;11.03;;;9.10;;
12703;SDS011;6416;52.182;7.650;2023-01-19T02:12:42;9.73;;;8.67;;
12703;SDS011;6416;52.182;7.650;2023-01-19T02:15:17;10.27;;;9.27;;
12703;SDS011;6416;52.182;7.650;2023-01-19T02:17:43;9.73;;;8.73;;
12703;SDS011;6416;52.182;7.650;2023-01-19T02:20:09;9.67;;;8.77;;
12703;SDS011;6416;52.182;7.650;2023-01-19T02:22:39;9.70;;;8.73;;
12703;SDS011;6416;52.182;7.650;2023-01-19T02:25:09;9.67;;;8.77;;
12703;SDS011;6416;52.182;7.650;2023-01-19T02:27:35;10.33;;;9.07;;
12703;SDS011;6416;52.182;7.650;2023-01-19T02:30:01;10.17;;;9.17;;
12703;SDS011;6416;52.182;7.650;2023-01-19T02:32:27;10.07;;;9.07;;
12703;SDS011;6416;52.182;7.650;2023-01-19T02:34:52;10.33;;;9.33;;
12703;SDS011;6416;52.182;7.650;2023-01-19T02:37:18;11.13;;;9.43;;
12703;SDS011;6416;52.182;7.650;2023-01-19T02:39:52;10.83;;;9.80;;
12703;SDS011;6416;52.182;7.650;2023-01-19T02:42:22;10.67;;;9.53;;
12703;SDS011;6416;52.182;7.650;2023-01-19T02:44:52;10.67;;;9.50;;
12703;SDS011;6416;52.182;7.650;2023-01-19T02:47:19;11.87;;;10.63;;
12703;SDS011;6416;52.182;7.650;2023-01-19T02:49:52;10.50;;;9.60;;
12703;SDS011;6416;52.182;7.650;2023-01-19T02:52:22;10.20;;;9.20;;
12703;SDS011;6416;52.182;7.650;2023-01-19T02:54:51;10.30;;;9.20;;
12703;SDS011;6416;52.182;7.650;2023-01-19T02:57:30;11.17;;;10.00;;
12703;SDS011;6416;52.182;7.650;2023-01-19T03:00:18;11.07;;;9.97;;
12703;SDS011;6416;52.182;7.650;2023-01-19T03:05:52;11.37;;;10.27;;
12703;SDS011;6416;52.182;7.650;2023-01-19T03:08:40;11.77;;;10.00;;
12703;SDS011;6416;52.182;7.650;2023-01-19T03:11:12;13.80;;;10.37;;
12703;SDS011;6416;52.182;7.650;2023-01-19T03:16:28;11.90;;;10.70;;
12703;SDS011;6416;52.182;7.650;2023-01-19T03:19:25;12.13;;;10.93;;
12703;SDS011;6416;52.182;7.650;2023-01-19T03:22:08;11.33;;;10.23;;
12703;SDS011;6416;52.182;7.650;2023-01-19T03:24:38;12.00;;;10.87;;
12703;SDS011;6416;52.182;7.650;2023-01-19T03:27:08;10.33;;;9.33;;
12703;SDS011;6416;52.182;7.650;2023-01-19T03:29:38;11.30;;;10.13;;
12703;SDS011;6416;52.182;7.650;2023-01-19T03:32:06;10.97;;;9.87;;
12703;SDS011;6416;52.182;7.650;2023-01-19T03:34:36;11.30;;;10.17;;
12703;SDS011;6416;52.182;7.650;2023-01-19T03:37:03;13.00;;;11.70;;
12703;SDS011;6416;52.182;7.650;2023-01-19T03:39:31;12.83;;;11.50;;
12703;SDS011;6416;52.182;7.650;2023-01-19T03:42:03;12.10;;;10.87;;
12703;SDS011;6416;52.182;7.650;2023-01-19T03:44:31;12.90;;;11.47;;
12703;SDS011;6416;52.182;7.650;2023-01-19T03:46:58;12.87;;;10.93;;
12703;SDS011;6416;52.182;7.650;2023-01-19T03:49:24;10.93;;;9.83;;
12703;SDS011;6416;52.182;7.650;2023-01-19T03:51:50;10.73;;;9.63;;
12703;SDS011;6416;52.182;7.650;2023-01-19T03:54:19;12.07;;;9.67;;
12703;SDS011;6416;52.182;7.650;2023-01-19T03:56:45;11.47;;;10.40;;
12703;SDS011;6416;52.182;7.650;2023-01-19T03:59:10;10.37;;;9.37;;
12703;SDS011;6416;52.182;7.650;2023-01-19T04:01:36;11.23;;;10.10;;
12703;SDS011;6416;52.182;7.650;2023-01-19T04:04:01;11.07;;;9.87;;
12703;SDS011;6416;52.182;7.650;2023-01-19T04:06:27;11.17;;;10.07;;
12703;SDS011;6416;52.182;7.650;2023-01-19T04:08:52;10.97;;;9.80;;
12703;SDS011;6416;52.182;7.650;2023-01-19T04:11:18;11.60;;;10.40;;
12703;SDS011;6416;52.182;7.650;2023-01-19T04:13:43;11.23;;;10.13;;
12703;SDS011;6416;52.182;7.650;2023-01-19T04:16:09;10.77;;;9.67;;
12703;SDS011;6416;52.182;7.650;2023-01-19T04:18:35;10.70;;;9.47;;
12703;SDS011;6416;52.182;7.650;2023-01-19T04:21:02;10.30;;;9.30;;
12703;SDS011;6416;52.182;7.650;2023-01-19T04:23:28;11.70;;;9.50;;
12703;SDS011;6416;52.182;7.650;2023-01-19T04:25:57;10.70;;;9.60;;
12703;SDS011;6416;52.182;7.650;2023-01-19T04:28:24;9.83;;;8.90;;
12703;SDS011;6416;52.182;7.650;2023-01-19T04:30:50;10.77;;;9.47;;
12703;SDS011;6416;52.182;7.650;2023-01-19T04:33:16;10.73;;;9.73;;
12703;SDS011;6416;52.182;7.650;2023-01-19T04:35:43;10.73;;;9.60;;
12703;SDS011;6416;52.182;7.650;2023-01-19T04:38:09;11.50;;;10.40;;
12703;SDS011;6416;52.182;7.650;2023-01-19T04:40:35;11.33;;;10.23;;
12703;SDS011;6416;52.182;7.650;2023-01-19T04:43:00;12.10;;;10.90;;
12703;SDS011;6416;52.182;7.650;2023-01-19T04:45:26;11.57;;;10.47;;
12703;SDS011;6416;52.182;7.650;2023-01-19T04:47:51;12.40;;;11.03;;
12703;SDS011;6416;52.182;7.650;2023-01-19T04:50:17;13.17;;;11.87;;
12703;SDS011;6416;52.182;7.650;2023-01-19T04:52:42;12.40;;;11.10;;
12703;SDS011;6416;52.182;7.650;2023-01-19T04:55:08;11.17;;;10.10;;
12703;SDS011;6416;52.182;7.650;2023-01-19T04:57:34;11.60;;;10.50;;
12703;SDS011;6416;52.182;7.650;2023-01-19T04:59:59;12.87;;;11.60;;
12703;SDS011;6416;52.182;7.650;2023-01-19T05:02:25;10.63;;;9.63;;
12703;SDS011;6416;52.182;7.650;2023-01-19T05:04:51;12.50;;;11.17;;
12703;SDS011;6416;52.182;7.650;2023-01-19T05:07:16;11.30;;;10.10;;
12703;SDS011;6416;52.182;7.650;2023-01-19T05:09:42;13.10;;;11.00;;
12703;SDS011;6416;52.182;7.650;2023-01-19T05:12:07;12.57;;;11.37;;
12703;SDS011;6416;52.182;7.650;2023-01-19T05:14:33;12.43;;;11.13;;
12703;SDS011;6416;52.182;7.650;2023-01-19T05:16:58;12.07;;;10.87;;
12703;SDS011;6416;52.182;7.650;2023-01-19T05:19:24;11.47;;;10.30;;
12703;SDS011;6416;52.182;7.650;2023-01-19T05:21:49;10.77;;;9.70;;
12703;SDS011;6416;52.182;7.650;2023-01-19T05:24:15;10.27;;;9.33;;
12703;SDS011;6416;52.182;7.650;2023-01-19T05:26:40;10.50;;;9.40;;
12703;SDS011;6416;52.182;7.650;2023-01-19T05:29:06;9.93;;;9.03;;
12703;SDS011;6416;52.182;7.650;2023-01-19T05:31:31;10.70;;;9.60;;
12703;SDS011;6416;52.182;7.650;2023-01-19T05:33:57;13.30;;;12.10;;
12703;SDS011;6416;52.182;7.650;2023-01-19T05:36:22;11.70;;;10.57;;
12703;SDS011;6416;52.182;7.650;2023-01-19T05:38:48;8.90;;;8.10;;
12703;SDS011;6416;52.182;7.650;2023-01-19T05:41:13;9.20;;;8.30;;
12703;SDS011;6416;52.182;7.650;2023-01-19T05:43:39;8.57;;;7.77;;
12703;SDS011;6416;52.182;7.650;2023-01-19T05:46:04;7.67;;;6.93;;
12703;SDS011;6416;52.182;7.650;2023-01-19T05:48:30;8.63;;;7.83;;
12703;SDS011;6416;52.182;7.650;2023-01-19T05:50:56;7.40;;;6.70;;
12703;SDS011;6416;52.182;7.650;2023-01-19T05:53:25;6.83;;;6.13;;
12703;SDS011;6416;52.182;7.650;2023-01-19T05:55:50;6.70;;;6.10;;
12703;SDS011;6416;52.182;7.650;2023-01-19T05:58:16;6.80;;;6.20;;
12703;SDS011;6416;52.182;7.650;2023-01-19T06:00:41;7.10;;;6.40;;
12703;SDS011;6416;52.182;7.650;2023-01-19T06:03:07;6.47;;;5.87;;
12703;SDS011;6416;52.182;7.650;2023-01-19T06:05:32;6.50;;;5.90;;
12703;SDS011;6416;52.182;7.650;2023-01-19T06:07:58;5.93;;;5.43;;
12703;SDS011;6416;52.182;7.650;2023-01-19T06:10:23;5.93;;;5.43;;
12703;SDS011;6416;52.182;7.650;2023-01-19T06:12:49;5.43;;;4.93;;
12703;SDS011;6416;52.182;7.650;2023-01-19T06:15:14;5.33;;;4.83;;
12703;SDS011;6416;52.182;7.650;2023-01-19T06:17:40;5.70;;;5.20;;
12703;SDS011;6416;52.182;7.650;2023-01-19T06:20:05;6.20;;;5.70;;
12703;SDS011;6416;52.182;7.650;2023-01-19T06:22:31;5.63;;;5.13;;
12703;SDS011;6416;52.182;7.650;2023-01-19T06:24:57;6.63;;;6.03;;
12703;SDS011;6416;52.182;7.650;2023-01-19T06:27:22;5.87;;;5.37;;
12703;SDS011;6416;52.182;7.650;2023-01-19T06:29:47;5.60;;;5.10;;
12703;SDS011;6416;52.182;7.650;2023-01-19T06:32:13;5.60;;;5.10;;
12703;SDS011;6416;52.182;7.650;2023-01-19T06:34:38;5.27;;;4.87;;
12703;SDS011;6416;52.182;7.650;2023-01-19T06:37:04;5.23;;;4.73;;
12703;SDS011;6416;52.182;7.650;2023-01-19T06:39:29;5.57;;;5.07;;
12703;SDS011;6416;52.182;7.650;2023-01-19T06:41:55;4.83;;;4.43;;
12703;SDS011;6416;52.182;7.650;2023-01-19T06:44:20;5.43;;;5.00;;
12703;SDS011;6416;52.182;7.650;2023-01-19T06:46:46;5.77;;;5.27;;
12703;SDS011;6416;52.182;7.650;2023-01-19T06:49:11;5.77;;;5.27;;
12703;SDS011;6416;52.182;7.650;2023-01-19T06:51:36;5.67;;;5.27;;
12703;SDS011;6416;52.182;7.650;2023-01-19T06:54:02;4.77;;;4.37;;
12703;SDS011;6416;52.182;7.650;2023-01-19T06:56:27;5.00;;;4.60;;
12703;SDS011;6416;52.182;7.650;2023-01-19T06:58:53;5.20;;;4.80;;
12703;SDS011;6416;52.182;7.650;2023-01-19T07:01:18;4.20;;;3.90;;
12703;SDS011;6416;52.182;7.650;2023-01-19T07:03:44;4.80;;;4.40;;
12703;SDS011;6416;52.182;7.650;2023-01-19T07:06:09;4.47;;;4.07;;
12703;SDS011;6416;52.182;7.650;2023-01-19T07:08:35;4.53;;;4.13;;
12703;SDS011;6416;52.182;7.650;2023-01-19T07:11:03;4.43;;;4.03;;
12703;SDS011;6416;52.182;7.650;2023-01-19T07:13:30;3.80;;;3.50;;
12703;SDS011;6416;52.182;7.650;2023-01-19T07:15:56;3.83;;;3.53;;
12703;SDS011;6416;52.182;7.650;2023-01-19T07:18:22;3.80;;;3.20;;
12703;SDS011;6416;52.182;7.650;2023-01-19T07:20:47;3.47;;;3.20;;
12703;SDS011;6416;52.182;7.650;2023-01-19T07:23:13;3.87;;;3.57;;
12703;SDS011;6416;52.182;7.650;2023-01-19T07:25:39;3.90;;;3.60;;
12703;SDS011;6416;52.182;7.650;2023-01-19T07:28:05;3.70;;;3.40;;
12703;SDS011;6416;52.182;7.650;2023-01-19T07:30:31;3.13;;;2.93;;
12703;SDS011;6416;52.182;7.650;2023-01-19T07:32:56;3.30;;;3.10;;
12703;SDS011;6416;52.182;7.650;2023-01-19T07:35:23;3.10;;;2.90;;
12703;SDS011;6416;52.182;7.650;2023-01-19T07:37:48;3.30;;;3.00;;
12703;SDS011;6416;52.182;7.650;2023-01-19T07:40:14;3.13;;;2.87;;
12703;SDS011;6416;52.182;7.650;2023-01-19T07:42:44;2.80;;;2.60;;
12703;SDS011;6416;52.182;7.650;2023-01-19T07:45:11;3.97;;;3.10;;
12703;SDS011;6416;52.182;7.650;2023-01-19T07:47:36;3.30;;;3.00;;
12703;SDS011;6416;52.182;7.650;2023-01-19T07:50:02;3.43;;;3.23;;
12703;SDS011;6416;52.182;7.650;2023-01-19T07:52:27;3.17;;;2.87;;
12703;SDS011;6416;52.182;7.650;2023-01-19T07:54:53;3.07;;;2.87;;
12703;SDS011;6416;52.182;7.650;2023-01-19T07:57:18;4.03;;;3.07;;
12703;SDS011;6416;52.182;7.650;2023-01-19T07:59:44;2.80;;;2.60;;
12703;SDS011;6416;52.182;7.650;2023-01-19T08:02:09;3.63;;;3.33;;
12703;SDS011;6416;52.182;7.650;2023-01-19T08:04:35;3.97;;;3.50;;
12703;SDS011;6416;52.182;7.650;2023-01-19T08:07:00;3.30;;;3.00;;
12703;SDS011;6416;52.182;7.650;2023-01-19T08:09:26;3.53;;;3.07;;
12703;SDS011;6416;52.182;7.650;2023-01-19T08:11:51;3.00;;;2.70;;
12703;SDS011;6416;52.182;7.650;2023-01-19T08:14:17;3.10;;;2.80;;
12703;SDS011;6416;52.182;7.650;2023-01-19T08:16:42;2.80;;;2.60;;
12703;SDS011;6416;52.182;7.650;2023-01-19T08:19:08;3.57;;;3.07;;
12703;SDS011;6416;52.182;7.650;2023-01-19T08:21:33;3.00;;;2.47;;
12703;SDS011;6416;52.182;7.650;2023-01-19T08:23:59;4.57;;;2.70;;
12703;SDS011;6416;52.182;7.650;2023-01-19T08:26:26;3.57;;;2.50;;
12703;SDS011;6416;52.182;7.650;2023-01-19T08:28:57;3.67;;;2.97;;
12703;SDS011;6416;52.182;7.650;2023-01-19T08:31:24;3.93;;;2.93;;
12703;SDS011;6416;52.182;7.650;2023-01-19T08:33:50;3.73;;;2.90;;
12703;SDS011;6416;52.182;7.650;2023-01-19T08:36:15;5.00;;;3.20;;
12703;SDS011;6416;52.182;7.650;2023-01-19T08:38:43;4.50;;;3.10;;
12703;SDS011;6416;52.182;7.650;2023-01-19T08:41:09;3.03;;;2.80;;
12703;SDS011;6416;52.182;7.650;2023-01-19T08:43:36;3.67;;;2.87;;
12703;SDS011;6416;52.182;7.650;2023-01-19T08:46:02;4.33;;;2.93;;
12703;SDS011;6416;52.182;7.650;2023-01-19T08:48:28;4.60;;;3.07;;
12703;SDS011;6416;52.182;7.650;2023-01-19T08:50:54;3.80;;;3.37;;
12703;SDS011;6416;52.182;7.650;2023-01-19T08:53:19;4.17;;;3.00;;
12703;SDS011;6416;52.182;7.650;2023-01-19T08:55:45;5.80;;;3.50;;
12703;SDS011;6416;52.182;7.650;2023-01-19T08:58:11;5.47;;;3.60;;
12703;SDS011;6416;52.182;7.650;2023-01-19T09:00:37;3.50;;;3.20;;
12703;SDS011;6416;52.182;7.650;2023-01-19T09:03:04;4.03;;;3.13;;
12703;SDS011;6416;52.182;7.650;2023-01-19T09:05:31;4.07;;;3.20;;
12703;SDS011;6416;52.182;7.650;2023-01-19T09:07:58;3.53;;;3.23;;
12703;SDS011;6416;52.182;7.650;2023-01-19T09:10:23;3.37;;;3.07;;
12703;SDS011;6416;52.182;7.650;2023-01-19T09:12:49;3.77;;;2.77;;
12703;SDS011;6416;52.182;7.650;2023-01-19T09:15:14;4.27;;;3.40;;
12703;SDS011;6416;52.182;7.650;2023-01-19T09:17:40;3.53;;;2.80;;
12703;SDS011;6416;52.182;7.650;2023-01-19T09:20:06;2.90;;;2.57;;
12703;SDS011;6416;52.182;7.650;2023-01-19T09:22:32;6.50;;;3.03;;
12703;SDS011;6416;52.182;7.650;2023-01-19T09:24:57;4.57;;;2.70;;
12703;SDS011;6416;52.182;7.650;2023-01-19T09:27:23;4.00;;;2.67;;
12703;SDS011;6416;52.182;7.650;2023-01-19T09:29:48;5.70;;;2.90;;
12703;SDS011;6416;52.182;7.650;2023-01-19T09:32:14;4.27;;;2.33;;
12703;SDS011;6416;52.182;7.650;2023-01-19T09:34:39;4.53;;;3.10;;
12703;SDS011;6416;52.182;7.650;2023-01-19T09:37:05;3.50;;;2.50;;
12703;SDS011;6416;52.182;7.650;2023-01-19T09:39:30;3.27;;;2.83;;
12703;SDS011;6416;52.182;7.650;2023-01-19T09:41:59;4.67;;;2.67;;
12703;SDS011;6416;52.182;7.650;2023-01-19T09:44:38;3.90;;;2.40;;
12703;SDS011;6416;52.182;7.650;2023-01-19T09:47:13;3.73;;;2.90;;
12703;SDS011;6416;52.182;7.650;2023-01-19T09:49:42;3.10;;;2.57;;
12703;SDS011;6416;52.182;7.650;2023-01-19T09:52:13;5.87;;;2.83;;
12703;SDS011;6416;52.182;7.650;2023-01-19T09:54:49;3.33;;;2.50;;
12703;SDS011;6416;52.182;7.650;2023-01-19T09:57:16;3.87;;;2.63;;
12703;SDS011;6416;52.182;7.650;2023-01-19T09:59:42;3.10;;;2.80;;
12703;SDS011;6416;52.182;7.650;2023-01-19T10:10:26;2.90;;;2.47;;
12703;SDS011;6416;52.182;7.650;2023-01-19T10:18:15;5.07;;;2.90;;
12703;SDS011;6416;52.182;7.650;2023-01-19T10:20:45;3.70;;;2.77;;
12703;SDS011;6416;52.182;7.650;2023-01-19T10:26:05;3.67;;;2.73;;
12703;SDS011;6416;52.182;7.650;2023-01-19T10:28:33;3.43;;;2.60;;
12703;SDS011;6416;52.182;7.650;2023-01-19T10:31:01;5.77;;;2.90;;
12703;SDS011;6416;52.182;7.650;2023-01-19T10:33:27;6.77;;;3.10;;
12703;SDS011;6416;52.182;7.650;2023-01-19T10:35:53;6.73;;;3.37;;
12703;SDS011;6416;52.182;7.650;2023-01-19T10:38:18;8.95;;;5.40;;
12703;SDS011;6416;52.182;7.650;2023-01-19T10:41:06;11.03;;;4.77;;
12703;SDS011;6416;52.182;7.650;2023-01-19T10:43:44;6.67;;;4.00;;
12703;SDS011;6416;52.182;7.650;2023-01-19T10:48:47;5.03;;;2.80;;
12703;SDS011;6416;52.182;7.650;2023-01-19T10:51:14;4.00;;;2.97;;
12703;SDS011;6416;52.182;7.650;2023-01-19T10:53:41;7.00;;;3.53;;
12703;SDS011;6416;52.182;7.650;2023-01-19T10:56:20;5.30;;;3.23;;
12703;SDS011;6416;52.182;7.650;2023-01-19T10:58:52;5.13;;;3.10;;
12703;SDS011;6416;52.182;7.650;2023-01-19T11:01:19;8.83;;;3.10;;
12703;SDS011;6416;52.182;7.650;2023-01-19T11:03:47;6.00;;;3.10;;
12703;SDS011;6416;52.182;7.650;2023-01-19T11:08:38;7.83;;;3.47;;
12703;SDS011;6416;52.182;7.650;2023-01-19T11:11:04;6.37;;;3.37;;
12703;SDS011;6416;52.182;7.650;2023-01-19T11:13:30;4.87;;;2.33;;
12703;SDS011;6416;52.182;7.650;2023-01-19T11:15:57;3.30;;;1.90;;
12703;SDS011;6416;52.182;7.650;2023-01-19T11:18:40;7.50;;;2.70;;
12703;SDS011;6416;52.182;7.650;2023-01-19T11:21:11;4.63;;;2.60;;
12703;SDS011;6416;52.182;7.650;2023-01-19T11:23:40;6.33;;;2.70;;
12703;SDS011;6416;52.182;7.650;2023-01-19T11:26:13;5.37;;;3.00;;
12703;SDS011;6416;52.182;7.650;2023-01-19T11:28:48;4.67;;;2.27;;
12703;SDS011;6416;52.182;7.650;2023-01-19T11:36:17;5.13;;;1.83;;
12703;SDS011;6416;52.182;7.650;2023-01-19T11:38:44;7.45;;;2.30;;
12703;SDS011;6416;52.182;7.650;2023-01-19T11:41:15;5.67;;;2.10;;
12703;SDS011;6416;52.182;7.650;2023-01-19T11:43:56;4.78;;;2.40;;
12703;SDS011;6416;52.182;7.650;2023-01-19T11:46:28;5.65;;;2.25;;
12703;SDS011;6416;52.182;7.650;2023-01-19T11:49:07;5.90;;;2.28;;
12703;SDS011;6416;52.182;7.650;2023-01-19T11:52:04;4.72;;;2.17;;
12703;SDS011;6416;52.182;7.650;2023-01-19T11:54:40;4.47;;;2.08;;
12703;SDS011;6416;52.182;7.650;2023-01-19T11:57:13;7.32;;;2.20;;
12703;SDS011;6416;52.182;7.650;2023-01-19T11:59:40;4.68;;;2.20;;
12703;SDS011;6416;52.182;7.650;2023-01-19T12:02:25;6.80;;;2.20;;
12703;SDS011;6416;52.182;7.650;2023-01-19T12:04:54;4.88;;;2.25;;
12703;SDS011;6416;52.182;7.650;2023-01-19T12:07:25;3.45;;;1.80;;
12703;SDS011;6416;52.182;7.650;2023-01-19T12:09:57;4.93;;;2.97;;
12703;SDS011;6416;52.182;7.650;2023-01-19T12:12:36;4.03;;;2.15;;
12703;SDS011;6416;52.182;7.650;2023-01-19T12:17:51;4.60;;;2.10;;
12703;SDS011;6416;52.182;7.650;2023-01-19T12:25:44;6.25;;;2.53;;
12703;SDS011;6416;52.182;7.650;2023-01-19T12:28:30;5.13;;;2.10;;
12703;SDS011;6416;52.182;7.650;2023-01-19T12:31:00;7.32;;;2.50;;
12703;SDS011;6416;52.182;7.650;2023-01-19T12:33:30;5.40;;;2.30;;
12703;SDS011;6416;52.182;7.650;2023-01-19T12:35:58;3.95;;;1.92;;
12703;SDS011;6416;52.182;7.650;2023-01-19T12:43:43;4.95;;;2.17;;
12703;SDS011;6416;52.182;7.650;2023-01-19T12:46:19;3.40;;;2.28;;
12703;SDS011;6416;52.182;7.650;2023-01-19T12:48:52;4.32;;;2.53;;
12703;SDS011;6416;52.182;7.650;2023-01-19T12:51:22;4.28;;;2.30;;
12703;SDS011;6416;52.182;7.650;2023-01-19T12:53:51;5.68;;;2.75;;
12703;SDS011;6416;52.182;7.650;2023-01-19T12:56:18;4.22;;;2.38;;
12703;SDS011;6416;52.182;7.650;2023-01-19T12:58:51;5.13;;;2.50;;
12703;SDS011;6416;52.182;7.650;2023-01-19T13:01:17;7.93;;;2.55;;
12703;SDS011;6416;52.182;7.650;2023-01-19T13:09:31;7.50;;;2.70;;
12703;SDS011;6416;52.182;7.650;2023-01-19T13:14:48;6.60;;;2.50;;
12703;SDS011;6416;52.182;7.650;2023-01-19T13:17:16;7.43;;;2.90;;
12703;SDS011;6416;52.182;7.650;2023-01-19T13:22:48;3.43;;;2.23;;
12703;SDS011;6416;52.182;7.650;2023-01-19T13:25:34;4.50;;;2.53;;
12703;SDS011;6416;52.182;7.650;2023-01-19T13:28:00;7.20;;;2.57;;
12703;SDS011;6416;52.182;7.650;2023-01-19T13:30:27;5.37;;;3.13;;
12703;SDS011;6416;52.182;7.650;2023-01-19T13:32:54;4.63;;;2.70;;
12703;SDS011;6416;52.182;7.650;2023-01-19T13:35:33;4.20;;;2.40;;
12703;SDS011;6416;52.182;7.650;2023-01-19T13:37:58;4.53;;;2.87;;
12703;SDS011;6416;52.182;7.650;2023-01-19T13:40:30;6.33;;;3.10;;
12703;SDS011;6416;52.182;7.650;2023-01-19T13:43:01;4.93;;;3.00;;
12703;SDS011;6416;52.182;7.650;2023-01-19T13:47:55;6.37;;;3.37;;
12703;SDS011;6416;52.182;7.650;2023-01-19T13:50:31;5.17;;;3.37;;
12703;SDS011;6416;52.182;7.650;2023-01-19T13:52:58;5.50;;;3.50;;
12703;SDS011;6416;52.182;7.650;2023-01-19T13:55:25;5.97;;;3.57;;
12703;SDS011;6416;52.182;7.650;2023-01-19T13:57:52;6.17;;;3.60;;
12703;SDS011;6416;52.182;7.650;2023-01-19T14:00:19;6.93;;;3.87;;
12703;SDS011;6416;52.182;7.650;2023-01-19T14:02:58;9.27;;;4.10;;
12703;SDS011;6416;52.182;7.650;2023-01-19T14:08:14;5.37;;;4.40;;
12703;SDS011;6416;52.182;7.650;2023-01-19T14:10:40;5.37;;;3.77;;
12703;SDS011;6416;52.182;7.650;2023-01-19T14:13:19;4.67;;;3.97;;
12703;SDS011;6416;52.182;7.650;2023-01-19T14:15:54;5.50;;;4.17;;
12703;SDS011;6416;52.182;7.650;2023-01-19T14:18:28;7.13;;;4.70;;
12703;SDS011;6416;52.182;7.650;2023-01-19T14:24:08;6.30;;;4.53;;
12703;SDS011;6416;52.182;7.650;2023-01-19T14:29:16;8.03;;;5.13;;
12703;SDS011;6416;52.182;7.650;2023-01-19T14:31:49;6.40;;;5.30;;
12703;SDS011;6416;52.182;7.650;2023-01-19T14:39:53;9.13;;;5.70;;
12703;SDS011;6416;52.182;7.650;2023-01-19T14:42:30;8.13;;;5.43;;
12703;SDS011;6416;52.182;7.650;2023-01-19T14:45:02;11.33;;;5.90;;
12703;SDS011;6416;52.182;7.650;2023-01-19T14:47:38;6.87;;;5.57;;
12703;SDS011;6416;52.182;7.650;2023-01-19T14:52:53;9.07;;;5.67;;
12703;SDS011;6416;52.182;7.650;2023-01-19T14:55:24;11.60;;;6.43;;
12703;SDS011;6416;52.182;7.650;2023-01-19T14:58:00;10.80;;;6.43;;
12703;SDS011;6416;52.182;7.650;2023-01-19T15:00:25;7.20;;;5.77;;
12703;SDS011;6416;52.182;7.650;2023-01-19T15:02:51;8.00;;;5.87;;
12703;SDS011;6416;52.182;7.650;2023-01-19T15:05:16;9.10;;;6.00;;
12703;SDS011;6416;52.182;7.650;2023-01-19T15:07:43;6.93;;;6.27;;
12703;SDS011;6416;52.182;7.650;2023-01-19T15:10:17;9.43;;;7.00;;
12703;SDS011;6416;52.182;7.650;2023-01-19T15:12:44;7.47;;;6.67;;
12703;SDS011;6416;52.182;7.650;2023-01-19T15:15:18;8.43;;;7.03;;
12703;SDS011;6416;52.182;7.650;2023-01-19T15:17:55;10.87;;;7.50;;
12703;SDS011;6416;52.182;7.650;2023-01-19T15:20:21;9.00;;;7.90;;
12703;SDS011;6416;52.182;7.650;2023-01-19T15:22:47;12.07;;;7.83;;
12703;SDS011;6416;52.182;7.650;2023-01-19T15:25:13;9.83;;;8.03;;
12703;SDS011;6416;52.182;7.650;2023-01-19T15:27:40;10.30;;;7.13;;
12703;SDS011;6416;52.182;7.650;2023-01-19T15:30:22;10.23;;;9.13;;
12703;SDS011;6416;52.182;7.650;2023-01-19T15:32:50;10.13;;;8.30;;
12703;SDS011;6416;52.182;7.650;2023-01-19T15:35:17;12.03;;;8.63;;
12703;SDS011;6416;52.182;7.650;2023-01-19T15:37:44;11.13;;;8.80;;
12703;SDS011;6416;52.182;7.650;2023-01-19T15:40:10;9.60;;;8.50;;
12703;SDS011;6416;52.182;7.650;2023-01-19T15:42:36;12.17;;;8.83;;
12703;SDS011;6416;52.182;7.650;2023-01-19T15:45:02;9.93;;;8.10;;
12703;SDS011;6416;52.182;7.650;2023-01-19T15:47:41;9.90;;;8.43;;
12703;SDS011;6416;52.182;7.650;2023-01-19T15:50:07;9.40;;;8.40;;
12703;SDS011;6416;52.182;7.650;2023-01-19T15:52:33;11.80;;;8.47;;
12703;SDS011;6416;52.182;7.650;2023-01-19T15:54:58;10.87;;;8.20;;
12703;SDS011;6416;52.182;7.650;2023-01-19T15:57:24;12.13;;;8.83;;
12703;SDS011;6416;52.182;7.650;2023-01-19T15:59:49;13.63;;;9.27;;
12703;SDS011;6416;52.182;7.650;2023-01-19T16:02:14;11.87;;;9.40;;
12703;SDS011;6416;52.182;7.650;2023-01-19T16:04:40;13.00;;;8.93;;
12703;SDS011;6416;52.182;7.650;2023-01-19T16:07:05;13.27;;;9.97;;
12703;SDS011;6416;52.182;7.650;2023-01-19T16:09:31;11.10;;;9.40;;
12703;SDS011;6416;52.182;7.650;2023-01-19T16:11:56;12.40;;;9.60;;
12703;SDS011;6416;52.182;7.650;2023-01-19T16:14:22;10.40;;;8.43;;
12703;SDS011;6416;52.182;7.650;2023-01-19T16:16:47;11.67;;;7.93;;
12703;SDS011;6416;52.182;7.650;2023-01-19T16:19:13;9.57;;;8.30;;